WUK312 LKPR-EGKK
Flight info
| Callsign | WUK312 |
|---|---|
| Flight time | N/A |
| Altitude | 34000 |
| Route | BALTU DCT DONAD DCT RAPET Z93 KODUK DCT MASEK DCT ARPEG DCT BREDA DCT GALSO Q63 ARREK Y4 TEBRA |
| Aircraft | A321/M-SDE3FGHIRWY/LB1 |
Departure
| Time | 2026-05-01 09:18 |
|---|---|
| Airport | Václav Havel Airport Prague (LKPR) |
Arrival
| Time | N/A |
|---|---|
| Airport | London Gatwick Airport (EGKK) |
| Time | Latitude | Longitude | Altitude | Speed | Heading |
|---|---|---|---|---|---|
| 2026-05-01 08:59 | 50.10614 | 14.26216 | 1176 ft | 0 kts | 22° |
| 2026-05-01 09:06 | 50.10595 | 14.26204 | 1183 ft | 4 kts | 24° |
| 2026-05-01 09:06 | 50.10570 | 14.26188 | 1164 ft | 4 kts | 11° |
| 2026-05-01 09:06 | 50.10545 | 14.26189 | 1171 ft | 4 kts | 331° |
| 2026-05-01 09:06 | 50.10532 | 14.26206 | 1171 ft | 1 kts | 305° |
| 2026-05-01 09:07 | 50.10530 | 14.26209 | 1172 ft | 0 kts | 305° |
| 2026-05-01 09:09 | 50.10534 | 14.26201 | 1171 ft | 1 kts | 302° |
| 2026-05-01 09:09 | 50.10540 | 14.26165 | 1175 ft | 5 kts | 273° |
| 2026-05-01 09:10 | 50.10534 | 14.26108 | 1176 ft | 6 kts | 259° |
| 2026-05-01 09:10 | 50.10524 | 14.26042 | 1174 ft | 7 kts | 249° |
| 2026-05-01 09:10 | 50.10487 | 14.26021 | 1176 ft | 6 kts | 160° |
| 2026-05-01 09:10 | 50.10453 | 14.26073 | 1173 ft | 7 kts | 127° |
| 2026-05-01 09:11 | 50.10422 | 14.26141 | 1174 ft | 8 kts | 126° |
| 2026-05-01 09:11 | 50.10374 | 14.26244 | 1173 ft | 16 kts | 130° |
| 2026-05-01 09:11 | 50.10302 | 14.26386 | 1172 ft | 17 kts | 127° |
| 2026-05-01 09:11 | 50.10230 | 14.26538 | 1171 ft | 18 kts | 126° |
| 2026-05-01 09:12 | 50.10157 | 14.26694 | 1174 ft | 18 kts | 127° |
| 2026-05-01 09:12 | 50.10078 | 14.26850 | 1176 ft | 19 kts | 126° |
| 2026-05-01 09:12 | 50.10001 | 14.27015 | 1173 ft | 19 kts | 127° |
| 2026-05-01 09:12 | 50.09920 | 14.27180 | 1172 ft | 19 kts | 128° |
| 2026-05-01 09:13 | 50.09833 | 14.27345 | 1172 ft | 20 kts | 134° |
| 2026-05-01 09:13 | 50.09734 | 14.27496 | 1173 ft | 20 kts | 135° |
| 2026-05-01 09:13 | 50.09635 | 14.27651 | 1173 ft | 20 kts | 136° |
| 2026-05-01 09:13 | 50.09533 | 14.27806 | 1174 ft | 21 kts | 135° |
| 2026-05-01 09:14 | 50.09430 | 14.27963 | 1174 ft | 21 kts | 135° |
| 2026-05-01 09:14 | 50.09325 | 14.28124 | 1175 ft | 20 kts | 135° |
| 2026-05-01 09:14 | 50.09223 | 14.28270 | 1176 ft | 19 kts | 150° |
| 2026-05-01 09:14 | 50.09109 | 14.28215 | 1174 ft | 18 kts | 232° |
| 2026-05-01 09:15 | 50.09105 | 14.28043 | 1176 ft | 13 kts | 296° |
| 2026-05-01 09:15 | 50.09110 | 14.28027 | 1172 ft | 0 kts | 301° |
| 2026-05-01 09:15 | 50.09111 | 14.28027 | 1172 ft | 0 kts | 303° |
| 2026-05-01 09:15 | 50.09114 | 14.28021 | 1171 ft | 1 kts | 306° |
| 2026-05-01 09:17 | 50.09256 | 14.27724 | 1172 ft | 75 kts | 307° |
| 2026-05-01 09:17 | 50.09707 | 14.26794 | 1176 ft | 137 kts | 307° |
| 2026-05-01 09:17 | 50.11108 | 14.23858 | 1803 ft | 178 kts | 308° |
| 2026-05-01 09:18 | 50.11847 | 14.22325 | 2508 ft | 177 kts | 308° |
| 2026-05-01 09:18 | 50.13412 | 14.19114 | 3260 ft | 204 kts | 309° |